sensor_id;sensor_type;location;lat;lon;timestamp;P1;durP1;ratioP1;P2;durP2;ratioP2
67344;SDS011;54230;52.402;6.276;2024-01-07T00:00:00;44.8;;;31.9;;
67344;SDS011;54230;52.402;6.276;2024-01-07T00:05:00;48.1;;;34.8;;
67344;SDS011;54230;52.402;6.276;2024-01-07T00:10:00;45.3;;;31.6;;
67344;SDS011;54230;52.402;6.276;2024-01-07T00:15:00;45.6;;;33.4;;
67344;SDS011;54230;52.402;6.276;2024-01-07T00:20:00;46.2;;;34.1;;
67344;SDS011;54230;52.402;6.276;2024-01-07T00:25:00;45.1;;;31.6;;
67344;SDS011;54230;52.402;6.276;2024-01-07T00:30:00;42.6;;;32.7;;
67344;SDS011;54230;52.402;6.276;2024-01-07T00:35:00;44.7;;;32.7;;
67344;SDS011;54230;52.402;6.276;2024-01-07T00:40:00;45.3;;;33.6;;
67344;SDS011;54230;52.402;6.276;2024-01-07T00:45:00;46.3;;;35.0;;
67344;SDS011;54230;52.402;6.276;2024-01-07T00:50:00;49.2;;;33.7;;
67344;SDS011;54230;52.402;6.276;2024-01-07T00:55:00;49.3;;;33.8;;
67344;SDS011;54230;52.402;6.276;2024-01-07T01:00:00;46.6;;;32.4;;
67344;SDS011;54230;52.402;6.276;2024-01-07T01:05:00;46.9;;;33.2;;
67344;SDS011;54230;52.402;6.276;2024-01-07T01:10:00;48.4;;;34.1;;
67344;SDS011;54230;52.402;6.276;2024-01-07T01:15:00;47.6;;;31.4;;
67344;SDS011;54230;52.402;6.276;2024-01-07T01:20:00;45.1;;;31.6;;
67344;SDS011;54230;52.402;6.276;2024-01-07T01:25:00;46.1;;;32.5;;
67344;SDS011;54230;52.402;6.276;2024-01-07T01:30:00;46.9;;;33.8;;
67344;SDS011;54230;52.402;6.276;2024-01-07T01:35:00;47.8;;;34.7;;
67344;SDS011;54230;52.402;6.276;2024-01-07T01:40:00;47.3;;;33.9;;
67344;SDS011;54230;52.402;6.276;2024-01-07T01:45:00;48.3;;;35.4;;
67344;SDS011;54230;52.402;6.276;2024-01-07T01:50:00;47.3;;;33.8;;
67344;SDS011;54230;52.402;6.276;2024-01-07T01:55:00;43.1;;;32.5;;
67344;SDS011;54230;52.402;6.276;2024-01-07T02:00:00;43.0;;;30.6;;
67344;SDS011;54230;52.402;6.276;2024-01-07T02:05:00;42.8;;;31.8;;
67344;SDS011;54230;52.402;6.276;2024-01-07T02:10:00;41.9;;;30.4;;
67344;SDS011;54230;52.402;6.276;2024-01-07T02:15:00;43.1;;;33.3;;
67344;SDS011;54230;52.402;6.276;2024-01-07T02:20:00;42.4;;;32.8;;
67344;SDS011;54230;52.402;6.276;2024-01-07T02:25:00;40.4;;;31.3;;
67344;SDS011;54230;52.402;6.276;2024-01-07T02:30:00;38.6;;;30.0;;
67344;SDS011;54230;52.402;6.276;2024-01-07T02:35:00;38.1;;;28.8;;
67344;SDS011;54230;52.402;6.276;2024-01-07T02:40:00;37.6;;;29.5;;
67344;SDS011;54230;52.402;6.276;2024-01-07T02:45:00;37.9;;;28.9;;
67344;SDS011;54230;52.402;6.276;2024-01-07T02:50:00;36.6;;;29.7;;
67344;SDS011;54230;52.402;6.276;2024-01-07T02:55:00;34.0;;;27.2;;
67344;SDS011;54230;52.402;6.276;2024-01-07T03:00:00;31.6;;;26.6;;
67344;SDS011;54230;52.402;6.276;2024-01-07T03:05:00;33.5;;;28.1;;
67344;SDS011;54230;52.402;6.276;2024-01-07T03:10:00;34.6;;;28.3;;
67344;SDS011;54230;52.402;6.276;2024-01-07T03:15:00;32.8;;;26.2;;
67344;SDS011;54230;52.402;6.276;2024-01-07T03:20:00;33.4;;;27.8;;
67344;SDS011;54230;52.402;6.276;2024-01-07T03:25:00;32.1;;;27.7;;
67344;SDS011;54230;52.402;6.276;2024-01-07T03:30:00;32.9;;;27.5;;
67344;SDS011;54230;52.402;6.276;2024-01-07T03:35:00;33.7;;;27.9;;
67344;SDS011;54230;52.402;6.276;2024-01-07T03:40:00;33.3;;;28.4;;
67344;SDS011;54230;52.402;6.276;2024-01-07T03:45:00;33.2;;;28.6;;
67344;SDS011;54230;52.402;6.276;2024-01-07T03:50:00;32.8;;;28.2;;
67344;SDS011;54230;52.402;6.276;2024-01-07T03:55:00;31.6;;;26.7;;
67344;SDS011;54230;52.402;6.276;2024-01-07T04:00:00;33.5;;;27.7;;
67344;SDS011;54230;52.402;6.276;2024-01-07T04:05:00;33.2;;;28.3;;
67344;SDS011;54230;52.402;6.276;2024-01-07T04:10:00;31.0;;;27.7;;
67344;SDS011;54230;52.402;6.276;2024-01-07T04:15:00;31.4;;;27.3;;
67344;SDS011;54230;52.402;6.276;2024-01-07T04:20:00;32.2;;;28.7;;
67344;SDS011;54230;52.402;6.276;2024-01-07T04:25:00;31.8;;;28.3;;
67344;SDS011;54230;52.402;6.276;2024-01-07T04:30:00;33.2;;;29.4;;
67344;SDS011;54230;52.402;6.276;2024-01-07T04:35:00;30.2;;;26.4;;
67344;SDS011;54230;52.402;6.276;2024-01-07T04:40:00;30.0;;;26.4;;
67344;SDS011;54230;52.402;6.276;2024-01-07T04:45:00;31.7;;;28.3;;
67344;SDS011;54230;52.402;6.276;2024-01-07T04:50:00;30.9;;;26.7;;
67344;SDS011;54230;52.402;6.276;2024-01-07T04:55:00;30.6;;;27.3;;
67344;SDS011;54230;52.402;6.276;2024-01-07T05:00:00;30.4;;;27.0;;
67344;SDS011;54230;52.402;6.276;2024-01-07T05:05:00;30.0;;;26.0;;
67344;SDS011;54230;52.402;6.276;2024-01-07T05:10:00;31.7;;;28.2;;
67344;SDS011;54230;52.402;6.276;2024-01-07T05:15:00;28.5;;;25.2;;
67344;SDS011;54230;52.402;6.276;2024-01-07T05:20:00;30.0;;;26.6;;
67344;SDS011;54230;52.402;6.276;2024-01-07T05:25:00;33.3;;;28.9;;
67344;SDS011;54230;52.402;6.276;2024-01-07T05:30:00;32.0;;;28.2;;
67344;SDS011;54230;52.402;6.276;2024-01-07T05:35:00;32.6;;;27.1;;
67344;SDS011;54230;52.402;6.276;2024-01-07T05:40:00;32.8;;;26.8;;
67344;SDS011;54230;52.402;6.276;2024-01-07T05:45:00;30.4;;;26.4;;
67344;SDS011;54230;52.402;6.276;2024-01-07T05:50:00;32.9;;;27.1;;
67344;SDS011;54230;52.402;6.276;2024-01-07T05:55:00;31.5;;;28.0;;
67344;SDS011;54230;52.402;6.276;2024-01-07T06:00:00;31.6;;;26.6;;
67344;SDS011;54230;52.402;6.276;2024-01-07T06:05:00;31.6;;;28.2;;
67344;SDS011;54230;52.402;6.276;2024-01-07T06:10:00;28.0;;;25.0;;
67344;SDS011;54230;52.402;6.276;2024-01-07T06:15:00;28.6;;;25.5;;
67344;SDS011;54230;52.402;6.276;2024-01-07T06:20:00;29.9;;;26.8;;
67344;SDS011;54230;52.402;6.276;2024-01-07T06:25:00;29.3;;;26.3;;
67344;SDS011;54230;52.402;6.276;2024-01-07T06:30:00;29.3;;;26.3;;
67344;SDS011;54230;52.402;6.276;2024-01-07T06:35:00;26.2;;;23.3;;
67344;SDS011;54230;52.402;6.276;2024-01-07T06:40:00;27.6;;;24.7;;
67344;SDS011;54230;52.402;6.276;2024-01-07T06:45:00;27.4;;;24.5;;
67344;SDS011;54230;52.402;6.276;2024-01-07T06:50:00;26.4;;;23.6;;
67344;SDS011;54230;52.402;6.276;2024-01-07T06:55:00;28.1;;;25.1;;
67344;SDS011;54230;52.402;6.276;2024-01-07T07:00:00;28.1;;;25.3;;
67344;SDS011;54230;52.402;6.276;2024-01-07T07:05:00;27.2;;;24.3;;
67344;SDS011;54230;52.402;6.276;2024-01-07T07:10:00;25.4;;;22.7;;
67344;SDS011;54230;52.402;6.276;2024-01-07T07:15:00;26.9;;;23.8;;
67344;SDS011;54230;52.402;6.276;2024-01-07T07:20:00;24.3;;;21.8;;
67344;SDS011;54230;52.402;6.276;2024-01-07T07:25:00;26.2;;;23.5;;
67344;SDS011;54230;52.402;6.276;2024-01-07T07:30:00;26.4;;;23.7;;
67344;SDS011;54230;52.402;6.276;2024-01-07T07:35:00;26.7;;;23.9;;
67344;SDS011;54230;52.402;6.276;2024-01-07T07:40:00;25.0;;;22.3;;
67344;SDS011;54230;52.402;6.276;2024-01-07T07:45:00;25.7;;;22.3;;
67344;SDS011;54230;52.402;6.276;2024-01-07T07:50:00;25.1;;;22.5;;
67344;SDS011;54230;52.402;6.276;2024-01-07T07:55:00;28.0;;;25.2;;
67344;SDS011;54230;52.402;6.276;2024-01-07T08:00:00;24.5;;;21.9;;
67344;SDS011;54230;52.402;6.276;2024-01-07T08:05:00;26.1;;;23.4;;
67344;SDS011;54230;52.402;6.276;2024-01-07T08:10:00;22.3;;;20.0;;
67344;SDS011;54230;52.402;6.276;2024-01-07T08:15:00;24.1;;;21.6;;
67344;SDS011;54230;52.402;6.276;2024-01-07T08:20:00;21.9;;;19.7;;
67344;SDS011;54230;52.402;6.276;2024-01-07T08:25:00;22.9;;;20.7;;
67344;SDS011;54230;52.402;6.276;2024-01-07T08:30:00;20.6;;;18.6;;
67344;SDS011;54230;52.402;6.276;2024-01-07T08:35:00;22.4;;;20.3;;
67344;SDS011;54230;52.402;6.276;2024-01-07T08:40:00;20.7;;;18.7;;
67344;SDS011;54230;52.402;6.276;2024-01-07T08:45:00;19.3;;;17.5;;
67344;SDS011;54230;52.402;6.276;2024-01-07T08:50:00;21.4;;;19.4;;
67344;SDS011;54230;52.402;6.276;2024-01-07T08:55:00;21.2;;;19.1;;
67344;SDS011;54230;52.402;6.276;2024-01-07T09:00:00;22.0;;;20.0;;
67344;SDS011;54230;52.402;6.276;2024-01-07T09:05:00;20.8;;;18.9;;
67344;SDS011;54230;52.402;6.276;2024-01-07T09:10:00;22.0;;;20.0;;
67344;SDS011;54230;52.402;6.276;2024-01-07T09:15:00;20.3;;;18.5;;
67344;SDS011;54230;52.402;6.276;2024-01-07T09:20:00;21.0;;;19.1;;
67344;SDS011;54230;52.402;6.276;2024-01-07T09:25:00;19.6;;;17.7;;
67344;SDS011;54230;52.402;6.276;2024-01-07T09:30:00;20.1;;;18.2;;
67344;SDS011;54230;52.402;6.276;2024-01-07T09:35:00;21.2;;;19.3;;
67344;SDS011;54230;52.402;6.276;2024-01-07T09:40:00;20.1;;;18.2;;
67344;SDS011;54230;52.402;6.276;2024-01-07T09:45:00;21.3;;;19.4;;
67344;SDS011;54230;52.402;6.276;2024-01-07T09:50:00;22.2;;;20.2;;
67344;SDS011;54230;52.402;6.276;2024-01-07T09:55:00;20.3;;;18.5;;
67344;SDS011;54230;52.402;6.276;2024-01-07T10:00:00;19.2;;;17.5;;
67344;SDS011;54230;52.402;6.276;2024-01-07T10:05:00;20.3;;;18.6;;
67344;SDS011;54230;52.402;6.276;2024-01-07T10:10:02;19.2;;;17.6;;
67344;SDS011;54230;52.402;6.276;2024-01-07T10:15:00;19.5;;;17.9;;
67344;SDS011;54230;52.402;6.276;2024-01-07T10:20:00;19.6;;;17.9;;
67344;SDS011;54230;52.402;6.276;2024-01-07T10:25:00;19.7;;;18.1;;
67344;SDS011;54230;52.402;6.276;2024-01-07T10:30:00;20.7;;;18.7;;
67344;SDS011;54230;52.402;6.276;2024-01-07T10:35:02;16.8;;;15.2;;
67344;SDS011;54230;52.402;6.276;2024-01-07T10:40:00;19.1;;;17.3;;
67344;SDS011;54230;52.402;6.276;2024-01-07T10:45:00;19.8;;;18.2;;
67344;SDS011;54230;52.402;6.276;2024-01-07T10:50:00;18.1;;;16.5;;
67344;SDS011;54230;52.402;6.276;2024-01-07T10:55:02;18.6;;;16.8;;
67344;SDS011;54230;52.402;6.276;2024-01-07T11:00:00;17.7;;;16.2;;
67344;SDS011;54230;52.402;6.276;2024-01-07T11:05:00;16.0;;;14.5;;
67344;SDS011;54230;52.402;6.276;2024-01-07T11:10:02;19.2;;;17.6;;
67344;SDS011;54230;52.402;6.276;2024-01-07T11:15:00;17.6;;;16.1;;
67344;SDS011;54230;52.402;6.276;2024-01-07T11:20:00;17.5;;;16.0;;
67344;SDS011;54230;52.402;6.276;2024-01-07T11:25:00;20.1;;;18.4;;
67344;SDS011;54230;52.402;6.276;2024-01-07T11:30:01;16.4;;;15.0;;
67344;SDS011;54230;52.402;6.276;2024-01-07T11:35:00;19.8;;;18.1;;
67344;SDS011;54230;52.402;6.276;2024-01-07T11:40:00;16.9;;;15.4;;
67344;SDS011;54230;52.402;6.276;2024-01-07T11:45:00;18.8;;;17.1;;
67344;SDS011;54230;52.402;6.276;2024-01-07T11:50:00;17.3;;;15.9;;
67344;SDS011;54230;52.402;6.276;2024-01-07T11:55:00;19.1;;;17.6;;
67344;SDS011;54230;52.402;6.276;2024-01-07T12:00:00;16.7;;;15.2;;
67344;SDS011;54230;52.402;6.276;2024-01-07T12:05:00;18.1;;;16.4;;
67344;SDS011;54230;52.402;6.276;2024-01-07T12:10:00;17.1;;;15.7;;
67344;SDS011;54230;52.402;6.276;2024-01-07T12:15:00;16.6;;;15.2;;
67344;SDS011;54230;52.402;6.276;2024-01-07T12:20:00;17.0;;;15.6;;
67344;SDS011;54230;52.402;6.276;2024-01-07T12:25:00;18.2;;;16.6;;
67344;SDS011;54230;52.402;6.276;2024-01-07T12:30:00;20.1;;;18.5;;
67344;SDS011;54230;52.402;6.276;2024-01-07T12:35:00;19.2;;;17.7;;
67344;SDS011;54230;52.402;6.276;2024-01-07T12:40:00;18.7;;;17.2;;
67344;SDS011;54230;52.402;6.276;2024-01-07T12:45:00;17.1;;;15.7;;
67344;SDS011;54230;52.402;6.276;2024-01-07T12:50:00;15.2;;;13.8;;
67344;SDS011;54230;52.402;6.276;2024-01-07T12:55:00;16.9;;;15.5;;
67344;SDS011;54230;52.402;6.276;2024-01-07T13:00:00;17.7;;;16.3;;
67344;SDS011;54230;52.402;6.276;2024-01-07T13:05:00;16.8;;;15.4;;
67344;SDS011;54230;52.402;6.276;2024-01-07T13:10:00;17.4;;;15.9;;
67344;SDS011;54230;52.402;6.276;2024-01-07T13:15:00;16.2;;;14.8;;
67344;SDS011;54230;52.402;6.276;2024-01-07T13:20:00;19.1;;;17.4;;
67344;SDS011;54230;52.402;6.276;2024-01-07T13:25:00;17.9;;;16.4;;
67344;SDS011;54230;52.402;6.276;2024-01-07T13:30:00;19.5;;;17.9;;
67344;SDS011;54230;52.402;6.276;2024-01-07T13:35:00;21.1;;;19.4;;
67344;SDS011;54230;52.402;6.276;2024-01-07T13:40:00;17.7;;;16.3;;
67344;SDS011;54230;52.402;6.276;2024-01-07T13:45:00;19.4;;;17.8;;
67344;SDS011;54230;52.402;6.276;2024-01-07T13:50:00;18.7;;;17.1;;
67344;SDS011;54230;52.402;6.276;2024-01-07T13:55:00;16.6;;;15.2;;
67344;SDS011;54230;52.402;6.276;2024-01-07T14:00:00;17.3;;;15.8;;
67344;SDS011;54230;52.402;6.276;2024-01-07T14:05:00;17.6;;;15.8;;
67344;SDS011;54230;52.402;6.276;2024-01-07T14:10:00;18.8;;;17.1;;
67344;SDS011;54230;52.402;6.276;2024-01-07T14:15:00;20.5;;;18.8;;
67344;SDS011;54230;52.402;6.276;2024-01-07T14:20:00;31.8;;;24.7;;
67344;SDS011;54230;52.402;6.276;2024-01-07T14:25:00;27.3;;;20.0;;
67344;SDS011;54230;52.402;6.276;2024-01-07T14:30:00;21.8;;;19.7;;
67344;SDS011;54230;52.402;6.276;2024-01-07T14:35:00;24.8;;;22.3;;
67344;SDS011;54230;52.402;6.276;2024-01-07T14:40:00;21.1;;;19.1;;
67344;SDS011;54230;52.402;6.276;2024-01-07T14:45:00;23.3;;;21.1;;
67344;SDS011;54230;52.402;6.276;2024-01-07T14:50:00;18.9;;;17.2;;
67344;SDS011;54230;52.402;6.276;2024-01-07T14:55:00;18.6;;;17.0;;
67344;SDS011;54230;52.402;6.276;2024-01-07T15:00:00;19.5;;;17.7;;
67344;SDS011;54230;52.402;6.276;2024-01-07T15:05:00;22.9;;;20.8;;
67344;SDS011;54230;52.402;6.276;2024-01-07T15:10:00;20.9;;;18.9;;
67344;SDS011;54230;52.402;6.276;2024-01-07T15:15:00;20.1;;;18.1;;
67344;SDS011;54230;52.402;6.276;2024-01-07T15:20:00;20.8;;;18.6;;
67344;SDS011;54230;52.402;6.276;2024-01-07T15:25:00;20.0;;;18.2;;
67344;SDS011;54230;52.402;6.276;2024-01-07T15:30:00;22.1;;;20.0;;
67344;SDS011;54230;52.402;6.276;2024-01-07T15:35:00;20.4;;;18.6;;
67344;SDS011;54230;52.402;6.276;2024-01-07T15:40:00;19.7;;;17.9;;
67344;SDS011;54230;52.402;6.276;2024-01-07T15:45:00;21.3;;;19.2;;
67344;SDS011;54230;52.402;6.276;2024-01-07T15:50:00;20.6;;;18.7;;
67344;SDS011;54230;52.402;6.276;2024-01-07T15:55:00;21.8;;;19.7;;
67344;SDS011;54230;52.402;6.276;2024-01-07T16:00:00;22.7;;;20.5;;
67344;SDS011;54230;52.402;6.276;2024-01-07T16:05:00;22.1;;;20.0;;
67344;SDS011;54230;52.402;6.276;2024-01-07T16:10:00;23.8;;;21.5;;
67344;SDS011;54230;52.402;6.276;2024-01-07T16:15:00;21.8;;;19.8;;
67344;SDS011;54230;52.402;6.276;2024-01-07T16:20:00;21.4;;;19.3;;
67344;SDS011;54230;52.402;6.276;2024-01-07T16:25:00;18.5;;;16.7;;
67344;SDS011;54230;52.402;6.276;2024-01-07T16:30:00;19.0;;;17.0;;
67344;SDS011;54230;52.402;6.276;2024-01-07T16:35:00;18.8;;;17.0;;
67344;SDS011;54230;52.402;6.276;2024-01-07T16:40:00;19.9;;;17.8;;
67344;SDS011;54230;52.402;6.276;2024-01-07T16:45:00;20.8;;;18.3;;
67344;SDS011;54230;52.402;6.276;2024-01-07T16:50:00;18.5;;;16.5;;
67344;SDS011;54230;52.402;6.276;2024-01-07T16:55:00;22.7;;;20.2;;
67344;SDS011;54230;52.402;6.276;2024-01-07T17:00:00;22.5;;;20.1;;
67344;SDS011;54230;52.402;6.276;2024-01-07T17:05:00;23.6;;;21.3;;
67344;SDS011;54230;52.402;6.276;2024-01-07T17:10:00;22.8;;;20.6;;
67344;SDS011;54230;52.402;6.276;2024-01-07T17:15:00;23.8;;;21.4;;
67344;SDS011;54230;52.402;6.276;2024-01-07T17:20:00;23.5;;;21.1;;
67344;SDS011;54230;52.402;6.276;2024-01-07T17:25:00;25.1;;;22.6;;
67344;SDS011;54230;52.402;6.276;2024-01-07T17:30:00;25.0;;;22.5;;
67344;SDS011;54230;52.402;6.276;2024-01-07T17:35:00;22.2;;;20.0;;
67344;SDS011;54230;52.402;6.276;2024-01-07T17:40:00;22.3;;;20.1;;
67344;SDS011;54230;52.402;6.276;2024-01-07T17:45:00;24.2;;;21.7;;
67344;SDS011;54230;52.402;6.276;2024-01-07T17:50:00;24.7;;;22.1;;
67344;SDS011;54230;52.402;6.276;2024-01-07T17:55:00;20.8;;;18.7;;
67344;SDS011;54230;52.402;6.276;2024-01-07T18:00:00;23.2;;;20.7;;
67344;SDS011;54230;52.402;6.276;2024-01-07T18:05:00;23.4;;;21.0;;
67344;SDS011;54230;52.402;6.276;2024-01-07T18:10:00;25.4;;;22.8;;
67344;SDS011;54230;52.402;6.276;2024-01-07T18:15:00;25.0;;;22.3;;
67344;SDS011;54230;52.402;6.276;2024-01-07T18:20:00;23.9;;;21.4;;
67344;SDS011;54230;52.402;6.276;2024-01-07T18:25:00;24.4;;;21.9;;
67344;SDS011;54230;52.402;6.276;2024-01-07T18:30:00;20.5;;;18.4;;
67344;SDS011;54230;52.402;6.276;2024-01-07T18:35:00;23.3;;;20.8;;
67344;SDS011;54230;52.402;6.276;2024-01-07T18:40:00;23.3;;;21.1;;
67344;SDS011;54230;52.402;6.276;2024-01-07T18:45:00;23.5;;;20.2;;
67344;SDS011;54230;52.402;6.276;2024-01-07T18:50:00;22.0;;;19.9;;
67344;SDS011;54230;52.402;6.276;2024-01-07T18:55:00;22.7;;;19.8;;
67344;SDS011;54230;52.402;6.276;2024-01-07T19:00:00;22.1;;;19.7;;
67344;SDS011;54230;52.402;6.276;2024-01-07T19:05:00;22.1;;;19.9;;
67344;SDS011;54230;52.402;6.276;2024-01-07T19:10:00;22.8;;;20.5;;
67344;SDS011;54230;52.402;6.276;2024-01-07T19:15:00;24.3;;;21.7;;
67344;SDS011;54230;52.402;6.276;2024-01-07T19:20:00;22.4;;;20.2;;
67344;SDS011;54230;52.402;6.276;2024-01-07T19:25:00;24.2;;;21.9;;
67344;SDS011;54230;52.402;6.276;2024-01-07T19:30:00;24.8;;;22.3;;
67344;SDS011;54230;52.402;6.276;2024-01-07T19:35:00;23.8;;;21.6;;
67344;SDS011;54230;52.402;6.276;2024-01-07T19:40:00;24.7;;;22.3;;
67344;SDS011;54230;52.402;6.276;2024-01-07T19:45:00;20.4;;;18.5;;
67344;SDS011;54230;52.402;6.276;2024-01-07T19:50:00;21.2;;;19.1;;
67344;SDS011;54230;52.402;6.276;2024-01-07T19:55:00;23.3;;;21.0;;
67344;SDS011;54230;52.402;6.276;2024-01-07T20:00:00;23.0;;;20.8;;
67344;SDS011;54230;52.402;6.276;2024-01-07T20:05:00;23.9;;;21.6;;
67344;SDS011;54230;52.402;6.276;2024-01-07T20:10:00;23.7;;;21.3;;
67344;SDS011;54230;52.402;6.276;2024-01-07T20:15:00;25.9;;;23.5;;
67344;SDS011;54230;52.402;6.276;2024-01-07T20:20:00;23.8;;;21.5;;
67344;SDS011;54230;52.402;6.276;2024-01-07T20:25:00;24.6;;;22.3;;
67344;SDS011;54230;52.402;6.276;2024-01-07T20:30:00;25.6;;;23.2;;
67344;SDS011;54230;52.402;6.276;2024-01-07T20:35:00;25.5;;;23.1;;
67344;SDS011;54230;52.402;6.276;2024-01-07T20:40:00;25.8;;;23.4;;
67344;SDS011;54230;52.402;6.276;2024-01-07T20:45:00;24.3;;;22.0;;
67344;SDS011;54230;52.402;6.276;2024-01-07T20:50:00;26.8;;;24.3;;
67344;SDS011;54230;52.402;6.276;2024-01-07T20:55:00;26.4;;;23.9;;
67344;SDS011;54230;52.402;6.276;2024-01-07T21:00:00;26.1;;;23.7;;
67344;SDS011;54230;52.402;6.276;2024-01-07T21:05:00;22.8;;;20.6;;
67344;SDS011;54230;52.402;6.276;2024-01-07T21:10:00;26.5;;;24.1;;
67344;SDS011;54230;52.402;6.276;2024-01-07T21:15:00;25.6;;;23.2;;
67344;SDS011;54230;52.402;6.276;2024-01-07T21:20:00;25.2;;;22.8;;
67344;SDS011;54230;52.402;6.276;2024-01-07T21:25:00;25.7;;;23.2;;
67344;SDS011;54230;52.402;6.276;2024-01-07T21:30:00;24.8;;;22.5;;
67344;SDS011;54230;52.402;6.276;2024-01-07T21:35:00;23.9;;;21.5;;
67344;SDS011;54230;52.402;6.276;2024-01-07T21:40:00;24.3;;;21.9;;
67344;SDS011;54230;52.402;6.276;2024-01-07T21:45:00;23.6;;;21.5;;
67344;SDS011;54230;52.402;6.276;2024-01-07T21:50:00;22.4;;;20.3;;
67344;SDS011;54230;52.402;6.276;2024-01-07T21:55:00;22.7;;;20.7;;
67344;SDS011;54230;52.402;6.276;2024-01-07T22:00:00;22.7;;;20.6;;
67344;SDS011;54230;52.402;6.276;2024-01-07T22:05:00;24.2;;;22.0;;
67344;SDS011;54230;52.402;6.276;2024-01-07T22:10:00;20.4;;;18.5;;
67344;SDS011;54230;52.402;6.276;2024-01-07T22:15:00;21.4;;;19.5;;
67344;SDS011;54230;52.402;6.276;2024-01-07T22:20:00;21.5;;;19.4;;
67344;SDS011;54230;52.402;6.276;2024-01-07T22:25:00;20.2;;;18.3;;
67344;SDS011;54230;52.402;6.276;2024-01-07T22:30:00;22.4;;;20.4;;
67344;SDS011;54230;52.402;6.276;2024-01-07T22:35:00;21.9;;;19.8;;
67344;SDS011;54230;52.402;6.276;2024-01-07T22:40:00;22.3;;;20.3;;
67344;SDS011;54230;52.402;6.276;2024-01-07T22:45:00;22.1;;;20.1;;
67344;SDS011;54230;52.402;6.276;2024-01-07T22:50:00;23.6;;;21.4;;
67344;SDS011;54230;52.402;6.276;2024-01-07T22:55:00;20.1;;;18.2;;
67344;SDS011;54230;52.402;6.276;2024-01-07T23:00:00;21.8;;;19.8;;
67344;SDS011;54230;52.402;6.276;2024-01-07T23:05:00;21.7;;;19.8;;
67344;SDS011;54230;52.402;6.276;2024-01-07T23:10:00;22.1;;;20.1;;
67344;SDS011;54230;52.402;6.276;2024-01-07T23:15:00;20.0;;;18.1;;
67344;SDS011;54230;52.402;6.276;2024-01-07T23:20:00;19.6;;;17.7;;
67344;SDS011;54230;52.402;6.276;2024-01-07T23:25:00;23.1;;;20.9;;
67344;SDS011;54230;52.402;6.276;2024-01-07T23:30:00;20.8;;;18.8;;
67344;SDS011;54230;52.402;6.276;2024-01-07T23:35:00;23.5;;;21.4;;
67344;SDS011;54230;52.402;6.276;2024-01-07T23:40:00;21.9;;;19.9;;
67344;SDS011;54230;52.402;6.276;2024-01-07T23:45:00;23.3;;;21.2;;
67344;SDS011;54230;52.402;6.276;2024-01-07T23:50:00;21.5;;;19.5;;
67344;SDS011;54230;52.402;6.276;2024-01-07T23:55:00;22.6;;;20.6;;
